Sarah D. — WDC5757 — position and weather

sailwx.info

Track history (hours):
 
Tides and Currents Weather Stations Pressure Air Temp Water Temp Dewpoint Dewpoint Depression Visibility Wind Speed Wind Dir Waves Ship Positions

Sarah D.

Owner: C & J MARINE SERVICES, INC., BERWICK, LA. More information available from US FCC via Universal Licensing System and Coast Guard Vessel Documentation Center.

Last reported at 2018-Jun-17 02:58 UTC. Time now 2018-Jun-19 08:01 UTC.
Position N 29°51' W 091°55'.

; draft 3 m.

Type: . MMSI: 367045970.

Date/timePositionNaut miles runAvg speedWind from/ knotsBaromVisibWave heightAir tempDewpointWater temp
2018-Jun-17 02:58N 29°51' W 091°55'2 4.9
2018-Jun-17 02:31N 29°50' W 091°57'3 5.1
2018-Jun-17 02:00N 29°50' W 091°60'3 6.0
2018-Jun-17 01:30N 29°49' W 092°03'3 6.1
2018-Jun-17 01:01N 29°48' W 092°07'3 6.5
2018-Jun-17 00:31N 29°47' W 092°10'2 4.3
2018-Jun-17 00:00N 29°47' W 092°12'1 1.1
2018-Jun-16 23:28N 29°47' W 092°13'0 0.1
2018-Jun-16 23:01N 29°47' W 092°13'0 0.0
2018-Jun-16 22:31N 29°47' W 092°13'0 0.7
2018-Jun-16 22:01N 29°48' W 092°13'0 0.7
2018-Jun-16 21:30N 29°48' W 092°14'1 2.6
2018-Jun-16 21:01N 29°48' W 092°15'2 4.6
2018-Jun-16 20:30N 29°49' W 092°18'1 2.9
2018-Jun-16 20:01N 29°50' W 092°19'4 5.3
2018-Jun-16 19:20N 29°52' W 092°22'2 5.7
2018-Jun-16 19:01N 29°53' W 092°24'33 3.5
2018-Jun-16 09:43N 29°56' W 093°02'1 5.3
2018-Jun-16 09:30N 29°56' W 093°03'2 4.2
2018-Jun-16 09:00N 29°56' W 093°06'2 4.2
2018-Jun-16 08:31N 29°56' W 093°08'2 4.1
2018-Jun-16 08:01N 29°57' W 093°10'2 3.6
2018-Jun-16 07:31N 29°58' W 093°11'2 3.8
2018-Jun-16 07:01N 29°60' W 093°13'2 4.6
2018-Jun-16 06:30N 30°02' W 093°14'2 4.2
2018-Jun-16 06:01N 30°03' W 093°16'2 3.9
2018-Jun-16 05:31N 30°05' W 093°17'1 2.4
2018-Jun-16 05:00N 30°06' W 093°18'1 1.1
2018-Jun-16 04:30N 30°06' W 093°18'0 0.0
2018-Jun-16 04:00N 30°06' W 093°18'0 0.0
2018-Jun-16 03:31N 30°06' W 093°18'0 0.0
2018-Jun-16 03:01N 30°06' W 093°18'0 0.0
2018-Jun-16 02:31N 30°06' W 093°18'0 0.0
2018-Jun-16 02:01N 30°06' W 093°18'0 0.0
2018-Jun-16 01:30N 30°06' W 093°18'0 0.0
2018-Jun-16 01:00N 30°06' W 093°18'0 0.0
2018-Jun-16 00:31N 30°06' W 093°18'0 0.0
2018-Jun-16 00:00N 30°06' W 093°18'0 0.1
2018-Jun-15 23:30N 30°06' W 093°18'0 0.0
2018-Jun-15 23:01N 30°06' W 093°18'0 0.0
2018-Jun-15 22:31N 30°06' W 093°18'0 0.0
2018-Jun-15 22:00N 30°06' W 093°18'0 0.0
2018-Jun-15 21:30N 30°06' W 093°18'0 0.0
2018-Jun-15 21:00N 30°06' W 093°18'0 0.0
2018-Jun-15 20:31N 30°06' W 093°18'0 0.0
2018-Jun-15 20:00N 30°06' W 093°18'0 0.0
2018-Jun-15 19:30N 30°06' W 093°18'0 0.0
2018-Jun-15 19:00N 30°06' W 093°18'0 0.0
2018-Jun-15 18:30N 30°06' W 093°18'0 0.1
2018-Jun-15 18:01N 30°06' W 093°18'0 0.0
2018-Jun-15 17:30N 30°06' W 093°18'0 0.1
2018-Jun-15 17:01N 30°06' W 093°18'0 0.0
2018-Jun-15 16:30N 30°06' W 093°18'0 0.1
2018-Jun-15 16:01N 30°06' W 093°18'0 0.0
2018-Jun-15 15:30N 30°06' W 093°18'0 0.0
2018-Jun-15 15:01N 30°06' W 093°18'0 0.0
2018-Jun-15 14:31N 30°06' W 093°18'0 0.1
2018-Jun-15 14:00N 30°06' W 093°18'0 0.0
2018-Jun-15 13:31N 30°06' W 093°18'0 0.0
2018-Jun-15 13:00N 30°06' W 093°18'0 0.0
2018-Jun-15 12:30N 30°06' W 093°18'0 0.0
2018-Jun-15 12:00N 30°06' W 093°18'0 0.0
2018-Jun-15 11:30N 30°06' W 093°18'0 0.0
2018-Jun-15 11:01N 30°06' W 093°18'0 0.0
2018-Jun-15 10:30N 30°06' W 093°18'0 0.0
2018-Jun-15 10:00N 30°06' W 093°18'0 0.0
2018-Jun-15 09:30N 30°06' W 093°18'0 0.0
2018-Jun-15 09:00N 30°06' W 093°18'0 0.0
2018-Jun-15 08:31N 30°06' W 093°18'0 0.0
2018-Jun-15 08:00N 30°06' W 093°18'0 0.0
2018-Jun-15 07:30N 30°06' W 093°18'0 0.0
2018-Jun-15 07:01N 30°06' W 093°18'0 0.0
2018-Jun-15 06:30N 30°06' W 093°18'0 0.0
2018-Jun-15 06:00N 30°06' W 093°18'0 0.0
2018-Jun-15 05:30N 30°06' W 093°18'0 0.1
2018-Jun-15 05:01N 30°06' W 093°18'0 0.0
2018-Jun-15 04:30N 30°06' W 093°18'0 0.0
2018-Jun-15 04:01N 30°06' W 093°18'0 0.0
2018-Jun-15 03:31N 30°06' W 093°18'0 0.0
2018-Jun-15 03:01N 30°06' W 093°18'1 1.6
2018-Jun-15 02:30N 30°06' W 093°19'3 5.2
2018-Jun-15 02:00N 30°04' W 093°21'2 3.9
2018-Jun-15 01:31N 30°04' W 093°23'3 5.8
2018-Jun-15 01:00N 30°04' W 093°27'3 5.7
2018-Jun-15 00:31N 30°04' W 093°30'3 6.2
2018-Jun-15 00:00N 30°04' W 093°34'3 5.9
2018-Jun-14 23:30N 30°04' W 093°37'3 6.8
2018-Jun-14 23:00N 30°04' W 093°41'3 6.1
2018-Jun-14 22:30N 30°02' W 093°44'3 6.0
2018-Jun-14 22:00N 30°00' W 093°46'3 6.4
2018-Jun-14 21:31N 29°59' W 093°50'2 3.8
2018-Jun-14 21:01N 29°58' W 093°51'3 7.0
2018-Jun-14 20:31N 29°55' W 093°54'4 7.1
2018-Jun-14 20:01N 29°52' W 093°56'3 6.2
2018-Jun-14 19:31N 29°49' W 093°58'2 4.3
2018-Jun-14 19:00N 29°48' W 094°00'3 5.3
2018-Jun-14 18:31N 29°46' W 094°02'2 4.9
2018-Jun-14 18:01N 29°45' W 094°05'2 4.9
2018-Jun-14 17:31N 29°43' W 094°07'3 5.0
2018-Jun-14 17:01N 29°42' W 094°09'2 4.8
2018-Jun-14 16:30N 29°41' W 094°12'2 4.8
2018-Jun-14 16:01N 29°40' W 094°14'2 4.8
2018-Jun-14 15:30N 29°39' W 094°17'2 4.9
2018-Jun-14 15:00N 29°38' W 094°19'3 5.1
2018-Jun-14 14:30N 29°36' W 094°22'2 3.7
2018-Jun-14 14:00N 29°36' W 094°24'2 4.2
2018-Jun-14 13:30N 29°34' W 094°25'3 5.0
2018-Jun-14 12:59N 29°33' W 094°28'2 3.3
2018-Jun-14 12:30N 29°32' W 094°29'2 4.3
2018-Jun-14 12:00N 29°31' W 094°31'1 0.7
2018-Jun-14 11:13N 29°31' W 094°32'2 4.4
2018-Jun-14 10:41N 29°30' W 094°34'7 5.4
2018-Jun-14 09:22N 29°27' W 094°42'2 4.0
2018-Jun-14 08:50N 29°25' W 094°43'0 0.0
2018-Jun-14 08:17N 29°25' W 094°43'0 0.0
2018-Jun-14 08:00N 29°25' W 094°43'0 0.0
2018-Jun-14 07:27N 29°25' W 094°43'0 0.0
2018-Jun-14 06:53N 29°25' W 094°43'0 0.0
2018-Jun-14 06:28N 29°25' W 094°43'0 0.0
2018-Jun-14 05:58N 29°25' W 094°43'0 0.2
2018-Jun-14 05:30N 29°25' W 094°43'0 0.3
2018-Jun-14 04:59N 29°25' W 094°43'0 0.1
2018-Jun-14 04:26N 29°25' W 094°43'2 4.6
2018-Jun-14 03:59N 29°24' W 094°45'2 4.8
2018-Jun-14 03:30N 29°22' W 094°47'12 6.3
2018-Jun-14 01:38N 29°32' W 094°54'1 6.4
2018-Jun-14 01:30N 29°33' W 094°55'3 6.2
2018-Jun-14 01:01N 29°36' W 094°57'3 6.3
2018-Jun-14 00:30N 29°39' W 094°58'3 6.5
2018-Jun-14 00:01N 29°42' W 094°59'7 0.4
2018-Jun-13 06:08N 29°47' W 095°05'0 0.0
2018-Jun-13 05:34N 29°47' W 095°05'0 0.0
2018-Jun-13 05:28N 29°47' W 095°05'0 0.0
2018-Jun-13 03:44N 29°47' W 095°05'5 0.2
2018-Jun-11 16:38N 29°42' W 095°01'1 4.7
2018-Jun-11 16:20N 29°42' W 094°59'2 5.0
2018-Jun-11 15:51N 29°39' W 094°58'3 5.1
2018-Jun-11 15:19N 29°37' W 094°57'2 5.1
2018-Jun-11 14:58N 29°35' W 094°56'5 5.1
2018-Jun-11 13:59N 29°31' W 094°53'2 5.1
2018-Jun-11 13:31N 29°29' W 094°52'3 5.6
2018-Jun-11 13:00N 29°27' W 094°50'3 6.2
2018-Jun-11 12:31N 29°24' W 094°49'2 4.6
2018-Jun-11 12:00N 29°23' W 094°46'2 4.9
2018-Jun-11 11:30N 29°25' W 094°44'1 0.2
2018-Jun-11 05:53N 29°25' W 094°44'0 0.0
2018-Jun-11 05:29N 29°25' W 094°44'2 2.3
2018-Jun-11 04:28N 29°27' W 094°42'1 3.1
2018-Jun-11 04:00N 29°28' W 094°40'0 0.1
2018-Jun-11 03:30N 29°28' W 094°40'0 0.0
2018-Jun-11 02:53N 29°28' W 094°40'0 0.0
2018-Jun-11 02:26N 29°28' W 094°40'0 0.1
2018-Jun-11 01:53N 29°28' W 094°40'0 0.2
2018-Jun-11 01:14N 29°27' W 094°40'0 0.4
2018-Jun-11 00:57N 29°28' W 094°40'0 0.0
2018-Jun-10 23:54N 29°28' W 094°40'0 0.0
2018-Jun-10 23:29N 29°28' W 094°40'0 0.0
2018-Jun-10 23:00N 29°28' W 094°40'0 0.0
2018-Jun-10 22:30N 29°28' W 094°40'1 1.2
2018-Jun-10 21:56N 29°28' W 094°39'13 4.7
2018-Jun-10 19:14N 29°34' W 094°27'2 3.7
2018-Jun-10 18:44N 29°35' W 094°25'1 3.6
2018-Jun-10 18:28N 29°36' W 094°25'2 3.5
2018-Jun-10 17:54N 29°36' W 094°22'1 2.1
2018-Jun-10 17:30N 29°37' W 094°22'2 4.0
2018-Jun-10 16:58N 29°38' W 094°19'2 3.9
2018-Jun-10 16:29N 29°38' W 094°17'2 3.8
2018-Jun-10 16:00N 29°39' W 094°16'2 4.0
2018-Jun-10 15:30N 29°40' W 094°13'2 3.4
2018-Jun-10 15:00N 29°41' W 094°12'3 3.1
2018-Jun-10 14:01N 29°42' W 094°08'2 4.2
2018-Jun-10 13:31N 29°43' W 094°06'2 4.2
2018-Jun-10 13:01N 29°45' W 094°05'2 4.0
2018-Jun-10 12:31N 29°46' W 094°03'2 4.3
2018-Jun-10 12:00N 29°47' W 094°01'2 4.2
2018-Jun-10 11:31N 29°49' W 093°59'2 3.7
2018-Jun-10 11:01N 29°50' W 093°57'2 4.7
2018-Jun-10 10:30N 29°52' W 093°56'2 4.7
2018-Jun-10 10:00N 29°54' W 093°55'2 4.5
2018-Jun-10 09:29N 29°55' W 093°53'2 4.3
2018-Jun-10 09:01N 29°57' W 093°52'2 4.5
2018-Jun-10 08:31N 29°59' W 093°50'2 5.0
2018-Jun-10 08:01N 29°60' W 093°47'2 4.7
2018-Jun-10 07:30N 30°01' W 093°45'2 4.6
2018-Jun-10 07:01N 30°03' W 093°43'2 4.4
2018-Jun-10 06:30N 30°04' W 093°41'2 4.5
2018-Jun-10 06:01N 30°04' W 093°38'2 4.2
2018-Jun-10 05:30N 30°04' W 093°36'2 3.9
2018-Jun-10 05:00N 30°04' W 093°34'2 4.0
2018-Jun-10 04:30N 30°04' W 093°31'2 4.0
2018-Jun-10 04:01N 30°04' W 093°29'2 3.9
2018-Jun-10 03:31N 30°04' W 093°27'2 3.5
2018-Jun-10 03:00N 30°04' W 093°25'2 3.3
2018-Jun-10 02:31N 30°04' W 093°23'2 3.1
2018-Jun-10 02:01N 30°04' W 093°21'1 2.9
2018-Jun-10 01:30N 30°05' W 093°20'2 3.7
2018-Jun-10 01:00N 30°06' W 093°18'1 2.1
2018-Jun-10 00:31N 30°05' W 093°17'1 1.7
2018-Jun-10 00:00N 30°05' W 093°17'1 1.2
2018-Jun-09 23:30N 30°04' W 093°16'0 0.6
2018-Jun-09 23:01N 30°04' W 093°16'0 0.0
2018-Jun-09 22:31N 30°04' W 093°16'0 0.0
2018-Jun-09 22:00N 30°04' W 093°16'0 0.0
2018-Jun-09 21:31N 30°04' W 093°16'0 0.0
2018-Jun-09 21:00N 30°04' W 093°16'0 0.0
2018-Jun-09 20:30N 30°04' W 093°16'0 0.0
2018-Jun-09 20:00N 30°04' W 093°16'0 0.0
2018-Jun-09 19:30N 30°04' W 093°16'0 0.0
2018-Jun-09 19:00N 30°04' W 093°16'0 0.0
2018-Jun-09 18:31N 30°04' W 093°16'0 0.0
2018-Jun-09 18:00N 30°04' W 093°16'0 0.0
2018-Jun-09 17:31N 30°04' W 093°16'0 0.7
2018-Jun-09 17:01N 30°04' W 093°16'1 1.6
2018-Jun-09 16:31N 30°03' W 093°16'1 2.5
2018-Jun-09 16:01N 30°02' W 093°15'0 0.6
2018-Jun-09 15:30N 30°02' W 093°14'0 0.0
2018-Jun-09 14:30N 30°02' W 093°14'0 0.0
2018-Jun-09 14:01N 30°02' W 093°14'0 0.0
2018-Jun-09 13:30N 30°02' W 093°14'0 0.0
2018-Jun-09 13:00N 30°02' W 093°14'0 0.0
2018-Jun-09 12:31N 30°02' W 093°14'0 0.0
2018-Jun-09 12:00N 30°02' W 093°14'0 0.0
2018-Jun-09 11:30N 30°02' W 093°14'0 0.2
2018-Jun-09 11:00N 30°02' W 093°14'0 0.8
2018-Jun-09 10:31N 30°01' W 093°14'1 3.0
2018-Jun-09 10:01N 29°60' W 093°13'2 3.5
2018-Jun-09 09:30N 29°59' W 093°12'1 1.2
2018-Jun-09 09:00N 29°58' W 093°12'0 0.8
2018-Jun-09 08:28N 29°58' W 093°11'0 0.0
2018-Jun-09 08:01N 29°58' W 093°11'0 0.0
2018-Jun-09 07:31N 29°58' W 093°11'0 0.0
2018-Jun-09 06:59N 29°58' W 093°11'0 0.0
2018-Jun-09 06:31N 29°58' W 093°11'0 0.0
2018-Jun-09 06:01N 29°58' W 093°11'0 0.0
2018-Jun-09 05:31N 29°58' W 093°11'0 0.0
2018-Jun-09 04:58N 29°58' W 093°11'0 0.0
2018-Jun-09 04:30N 29°58' W 093°11'0 0.0
2018-Jun-09 04:01N 29°58' W 093°11'0 0.0
2018-Jun-09 03:30N 29°58' W 093°11'0 0.0
2018-Jun-09 03:00N 29°58' W 093°11'0 0.0
2018-Jun-09 02:30N 29°58' W 093°11'0 0.0
2018-Jun-09 02:00N 29°58' W 093°11'0 0.9
2018-Jun-09 01:31N 29°58' W 093°11'2 3.6
2018-Jun-09 01:01N 29°56' W 093°10'2 4.1
2018-Jun-09 00:27N 29°56' W 093°07'2 4.1
2018-Jun-08 23:59N 29°56' W 093°05'31 1.8
2018-Jun-08 07:08N 29°54' W 092°29'1 3.5
2018-Jun-08 06:47N 29°54' W 092°28'1 3.5
2018-Jun-08 06:30N 29°53' W 092°27'2 3.4
2018-Jun-08 06:00N 29°53' W 092°25'2 3.7
2018-Jun-08 05:29N 29°52' W 092°23'2 3.5
2018-Jun-08 05:01N 29°51' W 092°22'2 3.5
2018-Jun-08 04:30N 29°50' W 092°20'1 2.8
2018-Jun-08 04:00N 29°50' W 092°18'2 3.7
2018-Jun-08 03:31N 29°49' W 092°17'2 4.4
2018-Jun-08 03:01N 29°48' W 092°14'2 3.7
2018-Jun-08 02:30N 29°47' W 092°12'1 2.2
2018-Jun-08 02:01N 29°47' W 092°11'0 0.6
2018-Jun-08 01:30N 29°47' W 092°11'0 0.0
2018-Jun-08 01:00N 29°47' W 092°11'0 0.2
2018-Jun-08 00:30N 29°47' W 092°11'2 3.1
2018-Jun-08 00:00N 29°47' W 092°09'2 4.1
2018-Jun-07 23:30N 29°48' W 092°07'2 4.4
2018-Jun-07 23:01N 29°48' W 092°04'2 4.1
2018-Jun-07 22:30N 29°49' W 092°02'2 4.1
2018-Jun-07 22:00N 29°50' W 091°60'2 4.4
2018-Jun-07 21:30N 29°50' W 091°57'2 4.6
2018-Jun-07 21:00N 29°51' W 091°55'  
Track history (hours):
 
Tides and Currents Weather Stations Pressure Air Temp Water Temp Dewpoint Dewpoint Depression Visibility Wind Speed Wind Dir Waves Ship Positions

Sarah D.

Owner: C & J MARINE SERVICES, INC., BERWICK, LA. More information available from US FCC via Universal Licensing System and Coast Guard Vessel Documentation Center.

Last reported at 2018-Jun-17 02:58 UTC. Time now 2018-Jun-19 08:01 UTC.
Position N 29°51' W 091°55'.

; draft 3 m.

Type: . MMSI: 367045970.

Date/timePositionNaut miles runAvg speedWind from/ knotsBaromVisibWave heightAir tempDewpointWater temp
2018-Jun-17 02:58N 29°51' W 091°55'2 4.9
2018-Jun-17 02:31N 29°50' W 091°57'3 5.1
2018-Jun-17 02:00N 29°50' W 091°60'3 6.0
2018-Jun-17 01:30N 29°49' W 092°03'3 6.1
2018-Jun-17 01:01N 29°48' W 092°07'3 6.5
2018-Jun-17 00:31N 29°47' W 092°10'2 4.3
2018-Jun-17 00:00N 29°47' W 092°12'1 1.1
2018-Jun-16 23:28N 29°47' W 092°13'0 0.1
2018-Jun-16 23:01N 29°47' W 092°13'0 0.0
2018-Jun-16 22:31N 29°47' W 092°13'0 0.7
2018-Jun-16 22:01N 29°48' W 092°13'0 0.7
2018-Jun-16 21:30N 29°48' W 092°14'1 2.6
2018-Jun-16 21:01N 29°48' W 092°15'2 4.6
2018-Jun-16 20:30N 29°49' W 092°18'1 2.9
2018-Jun-16 20:01N 29°50' W 092°19'4 5.3
2018-Jun-16 19:20N 29°52' W 092°22'2 5.7
2018-Jun-16 19:01N 29°53' W 092°24'33 3.5
2018-Jun-16 09:43N 29°56' W 093°02'1 5.3
2018-Jun-16 09:30N 29°56' W 093°03'2 4.2
2018-Jun-16 09:00N 29°56' W 093°06'2 4.2
2018-Jun-16 08:31N 29°56' W 093°08'2 4.1
2018-Jun-16 08:01N 29°57' W 093°10'2 3.6
2018-Jun-16 07:31N 29°58' W 093°11'2 3.8
2018-Jun-16 07:01N 29°60' W 093°13'2 4.6
2018-Jun-16 06:30N 30°02' W 093°14'2 4.2
2018-Jun-16 06:01N 30°03' W 093°16'2 3.9
2018-Jun-16 05:31N 30°05' W 093°17'1 2.4
2018-Jun-16 05:00N 30°06' W 093°18'1 1.1
2018-Jun-16 04:30N 30°06' W 093°18'0 0.0
2018-Jun-16 04:00N 30°06' W 093°18'0 0.0
2018-Jun-16 03:31N 30°06' W 093°18'0 0.0
2018-Jun-16 03:01N 30°06' W 093°18'0 0.0
2018-Jun-16 02:31N 30°06' W 093°18'0 0.0
2018-Jun-16 02:01N 30°06' W 093°18'0 0.0
2018-Jun-16 01:30N 30°06' W 093°18'0 0.0
2018-Jun-16 01:00N 30°06' W 093°18'0 0.0
2018-Jun-16 00:31N 30°06' W 093°18'0 0.0
2018-Jun-16 00:00N 30°06' W 093°18'0 0.1
2018-Jun-15 23:30N 30°06' W 093°18'0 0.0
2018-Jun-15 23:01N 30°06' W 093°18'0 0.0
2018-Jun-15 22:31N 30°06' W 093°18'0 0.0
2018-Jun-15 22:00N 30°06' W 093°18'0 0.0
2018-Jun-15 21:30N 30°06' W 093°18'0 0.0
2018-Jun-15 21:00N 30°06' W 093°18'0 0.0
2018-Jun-15 20:31N 30°06' W 093°18'0 0.0
2018-Jun-15 20:00N 30°06' W 093°18'0 0.0
2018-Jun-15 19:30N 30°06' W 093°18'0 0.0
2018-Jun-15 19:00N 30°06' W 093°18'0 0.0
2018-Jun-15 18:30N 30°06' W 093°18'0 0.1
2018-Jun-15 18:01N 30°06' W 093°18'0 0.0
2018-Jun-15 17:30N 30°06' W 093°18'0 0.1
2018-Jun-15 17:01N 30°06' W 093°18'0 0.0
2018-Jun-15 16:30N 30°06' W 093°18'0 0.1
2018-Jun-15 16:01N 30°06' W 093°18'0 0.0
2018-Jun-15 15:30N 30°06' W 093°18'0 0.0
2018-Jun-15 15:01N 30°06' W 093°18'0 0.0
2018-Jun-15 14:31N 30°06' W 093°18'0 0.1
2018-Jun-15 14:00N 30°06' W 093°18'0 0.0
2018-Jun-15 13:31N 30°06' W 093°18'0 0.0
2018-Jun-15 13:00N 30°06' W 093°18'0 0.0
2018-Jun-15 12:30N 30°06' W 093°18'0 0.0
2018-Jun-15 12:00N 30°06' W 093°18'0 0.0
2018-Jun-15 11:30N 30°06' W 093°18'0 0.0
2018-Jun-15 11:01N 30°06' W 093°18'0 0.0
2018-Jun-15 10:30N 30°06' W 093°18'0 0.0
2018-Jun-15 10:00N 30°06' W 093°18'0 0.0
2018-Jun-15 09:30N 30°06' W 093°18'0 0.0
2018-Jun-15 09:00N 30°06' W 093°18'0 0.0
2018-Jun-15 08:31N 30°06' W 093°18'0 0.0
2018-Jun-15 08:00N 30°06' W 093°18'0 0.0
2018-Jun-15 07:30N 30°06' W 093°18'0 0.0
2018-Jun-15 07:01N 30°06' W 093°18'0 0.0
2018-Jun-15 06:30N 30°06' W 093°18'0 0.0
2018-Jun-15 06:00N 30°06' W 093°18'0 0.0
2018-Jun-15 05:30N 30°06' W 093°18'0 0.1
2018-Jun-15 05:01N 30°06' W 093°18'0 0.0
2018-Jun-15 04:30N 30°06' W 093°18'0 0.0
2018-Jun-15 04:01N 30°06' W 093°18'0 0.0
2018-Jun-15 03:31N 30°06' W 093°18'0 0.0
2018-Jun-15 03:01N 30°06' W 093°18'1 1.6
2018-Jun-15 02:30N 30°06' W 093°19'3 5.2
2018-Jun-15 02:00N 30°04' W 093°21'2 3.9
2018-Jun-15 01:31N 30°04' W 093°23'3 5.8
2018-Jun-15 01:00N 30°04' W 093°27'3 5.7
2018-Jun-15 00:31N 30°04' W 093°30'3 6.2
2018-Jun-15 00:00N 30°04' W 093°34'3 5.9
2018-Jun-14 23:30N 30°04' W 093°37'3 6.8
2018-Jun-14 23:00N 30°04' W 093°41'3 6.1
2018-Jun-14 22:30N 30°02' W 093°44'3 6.0
2018-Jun-14 22:00N 30°00' W 093°46'3 6.4
2018-Jun-14 21:31N 29°59' W 093°50'2 3.8
2018-Jun-14 21:01N 29°58' W 093°51'3 7.0
2018-Jun-14 20:31N 29°55' W 093°54'4 7.1
2018-Jun-14 20:01N 29°52' W 093°56'3 6.2
2018-Jun-14 19:31N 29°49' W 093°58'2 4.3
2018-Jun-14 19:00N 29°48' W 094°00'3 5.3
2018-Jun-14 18:31N 29°46' W 094°02'2 4.9
2018-Jun-14 18:01N 29°45' W 094°05'2 4.9
2018-Jun-14 17:31N 29°43' W 094°07'3 5.0
2018-Jun-14 17:01N 29°42' W 094°09'2 4.8
2018-Jun-14 16:30N 29°41' W 094°12'2 4.8
2018-Jun-14 16:01N 29°40' W 094°14'2 4.8
2018-Jun-14 15:30N 29°39' W 094°17'2 4.9
2018-Jun-14 15:00N 29°38' W 094°19'3 5.1
2018-Jun-14 14:30N 29°36' W 094°22'2 3.7
2018-Jun-14 14:00N 29°36' W 094°24'2 4.2
2018-Jun-14 13:30N 29°34' W 094°25'3 5.0
2018-Jun-14 12:59N 29°33' W 094°28'2 3.3
2018-Jun-14 12:30N 29°32' W 094°29'2 4.3
2018-Jun-14 12:00N 29°31' W 094°31'1 0.7
2018-Jun-14 11:13N 29°31' W 094°32'2 4.4
2018-Jun-14 10:41N 29°30' W 094°34'7 5.4
2018-Jun-14 09:22N 29°27' W 094°42'2 4.0
2018-Jun-14 08:50N 29°25' W 094°43'0 0.0
2018-Jun-14 08:17N 29°25' W 094°43'0 0.0
2018-Jun-14 08:00N 29°25' W 094°43'0 0.0
2018-Jun-14 07:27N 29°25' W 094°43'0 0.0
2018-Jun-14 06:53N 29°25' W 094°43'0 0.0
2018-Jun-14 06:28N 29°25' W 094°43'0 0.0
2018-Jun-14 05:58N 29°25' W 094°43'0 0.2
2018-Jun-14 05:30N 29°25' W 094°43'0 0.3
2018-Jun-14 04:59N 29°25' W 094°43'0 0.1
2018-Jun-14 04:26N 29°25' W 094°43'2 4.6
2018-Jun-14 03:59N 29°24' W 094°45'2 4.8
2018-Jun-14 03:30N 29°22' W 094°47'12 6.3
2018-Jun-14 01:38N 29°32' W 094°54'1 6.4
2018-Jun-14 01:30N 29°33' W 094°55'3 6.2
2018-Jun-14 01:01N 29°36' W 094°57'3 6.3
2018-Jun-14 00:30N 29°39' W 094°58'3 6.5
2018-Jun-14 00:01N 29°42' W 094°59'7 0.4
2018-Jun-13 06:08N 29°47' W 095°05'0 0.0
2018-Jun-13 05:34N 29°47' W 095°05'0 0.0
2018-Jun-13 05:28N 29°47' W 095°05'0 0.0
2018-Jun-13 03:44N 29°47' W 095°05'5 0.2
2018-Jun-11 16:38N 29°42' W 095°01'1 4.7
2018-Jun-11 16:20N 29°42' W 094°59'2 5.0
2018-Jun-11 15:51N 29°39' W 094°58'3 5.1
2018-Jun-11 15:19N 29°37' W 094°57'2 5.1
2018-Jun-11 14:58N 29°35' W 094°56'5 5.1
2018-Jun-11 13:59N 29°31' W 094°53'2 5.1
2018-Jun-11 13:31N 29°29' W 094°52'3 5.6
2018-Jun-11 13:00N 29°27' W 094°50'3 6.2
2018-Jun-11 12:31N 29°24' W 094°49'2 4.6
2018-Jun-11 12:00N 29°23' W 094°46'2 4.9
2018-Jun-11 11:30N 29°25' W 094°44'1 0.2
2018-Jun-11 05:53N 29°25' W 094°44'0 0.0
2018-Jun-11 05:29N 29°25' W 094°44'2 2.3
2018-Jun-11 04:28N 29°27' W 094°42'1 3.1
2018-Jun-11 04:00N 29°28' W 094°40'0 0.1
2018-Jun-11 03:30N 29°28' W 094°40'0 0.0
2018-Jun-11 02:53N 29°28' W 094°40'0 0.0
2018-Jun-11 02:26N 29°28' W 094°40'0 0.1
2018-Jun-11 01:53N 29°28' W 094°40'0 0.2
2018-Jun-11 01:14N 29°27' W 094°40'0 0.4
2018-Jun-11 00:57N 29°28' W 094°40'0 0.0
2018-Jun-10 23:54N 29°28' W 094°40'0 0.0
2018-Jun-10 23:29N 29°28' W 094°40'0 0.0
2018-Jun-10 23:00N 29°28' W 094°40'0 0.0
2018-Jun-10 22:30N 29°28' W 094°40'1 1.2
2018-Jun-10 21:56N 29°28' W 094°39'13 4.7
2018-Jun-10 19:14N 29°34' W 094°27'2 3.7
2018-Jun-10 18:44N 29°35' W 094°25'1 3.6
2018-Jun-10 18:28N 29°36' W 094°25'2 3.5
2018-Jun-10 17:54N 29°36' W 094°22'1 2.1
2018-Jun-10 17:30N 29°37' W 094°22'2 4.0
2018-Jun-10 16:58N 29°38' W 094°19'2 3.9
2018-Jun-10 16:29N 29°38' W 094°17'2 3.8
2018-Jun-10 16:00N 29°39' W 094°16'2 4.0
2018-Jun-10 15:30N 29°40' W 094°13'2 3.4
2018-Jun-10 15:00N 29°41' W 094°12'3 3.1
2018-Jun-10 14:01N 29°42' W 094°08'2 4.2
2018-Jun-10 13:31N 29°43' W 094°06'2 4.2
2018-Jun-10 13:01N 29°45' W 094°05'2 4.0
2018-Jun-10 12:31N 29°46' W 094°03'2 4.3
2018-Jun-10 12:00N 29°47' W 094°01'2 4.2
2018-Jun-10 11:31N 29°49' W 093°59'2 3.7
2018-Jun-10 11:01N 29°50' W 093°57'2 4.7
2018-Jun-10 10:30N 29°52' W 093°56'2 4.7
2018-Jun-10 10:00N 29°54' W 093°55'2 4.5
2018-Jun-10 09:29N 29°55' W 093°53'2 4.3
2018-Jun-10 09:01N 29°57' W 093°52'2 4.5
2018-Jun-10 08:31N 29°59' W 093°50'2 5.0
2018-Jun-10 08:01N 29°60' W 093°47'2 4.7
2018-Jun-10 07:30N 30°01' W 093°45'2 4.6
2018-Jun-10 07:01N 30°03' W 093°43'2 4.4
2018-Jun-10 06:30N 30°04' W 093°41'2 4.5
2018-Jun-10 06:01N 30°04' W 093°38'2 4.2
2018-Jun-10 05:30N 30°04' W 093°36'2 3.9
2018-Jun-10 05:00N 30°04' W 093°34'2 4.0
2018-Jun-10 04:30N 30°04' W 093°31'2 4.0
2018-Jun-10 04:01N 30°04' W 093°29'2 3.9
2018-Jun-10 03:31N 30°04' W 093°27'2 3.5
2018-Jun-10 03:00N 30°04' W 093°25'2 3.3
2018-Jun-10 02:31N 30°04' W 093°23'2 3.1
2018-Jun-10 02:01N 30°04' W 093°21'1 2.9
2018-Jun-10 01:30N 30°05' W 093°20'2 3.7
2018-Jun-10 01:00N 30°06' W 093°18'1 2.1
2018-Jun-10 00:31N 30°05' W 093°17'1 1.7
2018-Jun-10 00:00N 30°05' W 093°17'1 1.2
2018-Jun-09 23:30N 30°04' W 093°16'0 0.6
2018-Jun-09 23:01N 30°04' W 093°16'0 0.0
2018-Jun-09 22:31N 30°04' W 093°16'0 0.0
2018-Jun-09 22:00N 30°04' W 093°16'0 0.0
2018-Jun-09 21:31N 30°04' W 093°16'0 0.0
2018-Jun-09 21:00N 30°04' W 093°16'0 0.0
2018-Jun-09 20:30N 30°04' W 093°16'0 0.0
2018-Jun-09 20:00N 30°04' W 093°16'0 0.0
2018-Jun-09 19:30N 30°04' W 093°16'0 0.0
2018-Jun-09 19:00N 30°04' W 093°16'0 0.0
2018-Jun-09 18:31N 30°04' W 093°16'0 0.0
2018-Jun-09 18:00N 30°04' W 093°16'0 0.0
2018-Jun-09 17:31N 30°04' W 093°16'0 0.7
2018-Jun-09 17:01N 30°04' W 093°16'1 1.6
2018-Jun-09 16:31N 30°03' W 093°16'1 2.5
2018-Jun-09 16:01N 30°02' W 093°15'0 0.6
2018-Jun-09 15:30N 30°02' W 093°14'0 0.0
2018-Jun-09 14:30N 30°02' W 093°14'0 0.0
2018-Jun-09 14:01N 30°02' W 093°14'0 0.0
2018-Jun-09 13:30N 30°02' W 093°14'0 0.0
2018-Jun-09 13:00N 30°02' W 093°14'0 0.0
2018-Jun-09 12:31N 30°02' W 093°14'0 0.0
2018-Jun-09 12:00N 30°02' W 093°14'0 0.0
2018-Jun-09 11:30N 30°02' W 093°14'0 0.2
2018-Jun-09 11:00N 30°02' W 093°14'0 0.8
2018-Jun-09 10:31N 30°01' W 093°14'1 3.0
2018-Jun-09 10:01N 29°60' W 093°13'2 3.5
2018-Jun-09 09:30N 29°59' W 093°12'1 1.2
2018-Jun-09 09:00N 29°58' W 093°12'0 0.8
2018-Jun-09 08:28N 29°58' W 093°11'0 0.0
2018-Jun-09 08:01N 29°58' W 093°11'0 0.0
2018-Jun-09 07:31N 29°58' W 093°11'0 0.0
2018-Jun-09 06:59N 29°58' W 093°11'0 0.0
2018-Jun-09 06:31N 29°58' W 093°11'0 0.0
2018-Jun-09 06:01N 29°58' W 093°11'0 0.0
2018-Jun-09 05:31N 29°58' W 093°11'0 0.0
2018-Jun-09 04:58N 29°58' W 093°11'0 0.0
2018-Jun-09 04:30N 29°58' W 093°11'0 0.0
2018-Jun-09 04:01N 29°58' W 093°11'0 0.0
2018-Jun-09 03:30N 29°58' W 093°11'0 0.0
2018-Jun-09 03:00N 29°58' W 093°11'0 0.0
2018-Jun-09 02:30N 29°58' W 093°11'0 0.0
2018-Jun-09 02:00N 29°58' W 093°11'0 0.9
2018-Jun-09 01:31N 29°58' W 093°11'2 3.6
2018-Jun-09 01:01N 29°56' W 093°10'2 4.1
2018-Jun-09 00:27N 29°56' W 093°07'2 4.1
2018-Jun-08 23:59N 29°56' W 093°05'31 1.8
2018-Jun-08 07:08N 29°54' W 092°29'1 3.5
2018-Jun-08 06:47N 29°54' W 092°28'1 3.5
2018-Jun-08 06:30N 29°53' W 092°27'2 3.4
2018-Jun-08 06:00N 29°53' W 092°25'2 3.7
2018-Jun-08 05:29N 29°52' W 092°23'2 3.5
2018-Jun-08 05:01N 29°51' W 092°22'2 3.5
2018-Jun-08 04:30N 29°50' W 092°20'1 2.8
2018-Jun-08 04:00N 29°50' W 092°18'2 3.7
2018-Jun-08 03:31N 29°49' W 092°17'2 4.4
2018-Jun-08 03:01N 29°48' W 092°14'2 3.7
2018-Jun-08 02:30N 29°47' W 092°12'1 2.2
2018-Jun-08 02:01N 29°47' W 092°11'0 0.6
2018-Jun-08 01:30N 29°47' W 092°11'0 0.0
2018-Jun-08 01:00N 29°47' W 092°11'0 0.2
2018-Jun-08 00:30N 29°47' W 092°11'2 3.1
2018-Jun-08 00:00N 29°47' W 092°09'2 4.1
2018-Jun-07 23:30N 29°48' W 092°07'2 4.4
2018-Jun-07 23:01N 29°48' W 092°04'2 4.1
2018-Jun-07 22:30N 29°49' W 092°02'2 4.1
2018-Jun-07 22:00N 29°50' W 091°60'2 4.4
2018-Jun-07 21:30N 29°50' W 091°57'2 4.6
2018-Jun-07 21:00N 29°51' W 091°55'  

Dump ship's entire track history